sensor_id;sensor_type;location;lat;lon;timestamp;temperature;humidity
71128;SHT30;59249;59.736;30.568;2023-09-30T00:00:10;16.87;93.51
71128;SHT30;59249;59.736;30.568;2023-09-30T00:02:40;16.88;93.41
71128;SHT30;59249;59.736;30.568;2023-09-30T00:05:10;16.86;93.48
71128;SHT30;59249;59.736;30.568;2023-09-30T00:07:40;16.84;93.41
71128;SHT30;59249;59.736;30.568;2023-09-30T00:10:09;16.74;93.79
71128;SHT30;59249;59.736;30.568;2023-09-30T00:12:38;16.72;93.99
71128;SHT30;59249;59.736;30.568;2023-09-30T00:15:08;16.75;93.69
71128;SHT30;59249;59.736;30.568;2023-09-30T00:17:37;16.75;93.88
71128;SHT30;59249;59.736;30.568;2023-09-30T00:20:07;16.80;93.60
71128;SHT30;59249;59.736;30.568;2023-09-30T00:22:36;16.75;93.52
71128;SHT30;59249;59.736;30.568;2023-09-30T00:25:08;16.70;93.72
71128;SHT30;59249;59.736;30.568;2023-09-30T00:27:37;16.67;93.89
71128;SHT30;59249;59.736;30.568;2023-09-30T00:30:07;16.65;94.24
71128;SHT30;59249;59.736;30.568;2023-09-30T00:32:36;16.68;94.35
71128;SHT30;59249;59.736;30.568;2023-09-30T00:35:07;16.63;94.37
71128;SHT30;59249;59.736;30.568;2023-09-30T00:37:39;16.67;94.17
71128;SHT30;59249;59.736;30.568;2023-09-30T00:40:11;16.58;94.09
71128;SHT30;59249;59.736;30.568;2023-09-30T00:42:41;16.66;94.16
71128;SHT30;59249;59.736;30.568;2023-09-30T00:45:11;16.67;94.25
71128;SHT30;59249;59.736;30.568;2023-09-30T00:47:41;16.67;94.09
71128;SHT30;59249;59.736;30.568;2023-09-30T00:50:10;16.75;94.01
71128;SHT30;59249;59.736;30.568;2023-09-30T00:52:41;16.72;93.60
71128;SHT30;59249;59.736;30.568;2023-09-30T00:55:12;16.70;93.55
71128;SHT30;59249;59.736;30.568;2023-09-30T00:57:42;16.76;93.46
71128;SHT30;59249;59.736;30.568;2023-09-30T01:00:13;16.78;93.50
71128;SHT30;59249;59.736;30.568;2023-09-30T01:02:41;16.79;93.60
71128;SHT30;59249;59.736;30.568;2023-09-30T01:05:12;16.81;93.35
71128;SHT30;59249;59.736;30.568;2023-09-30T01:07:41;16.79;93.81
71128;SHT30;59249;59.736;30.568;2023-09-30T01:10:11;16.77;94.14
71128;SHT30;59249;59.736;30.568;2023-09-30T01:12:40;16.76;94.36
71128;SHT30;59249;59.736;30.568;2023-09-30T01:15:10;16.81;93.86
71128;SHT30;59249;59.736;30.568;2023-09-30T01:17:39;16.79;93.76
71128;SHT30;59249;59.736;30.568;2023-09-30T01:20:10;16.88;93.71
71128;SHT30;59249;59.736;30.568;2023-09-30T01:22:45;16.81;93.68
71128;SHT30;59249;59.736;30.568;2023-09-30T01:25:14;16.81;93.60
71128;SHT30;59249;59.736;30.568;2023-09-30T01:27:43;16.82;93.46
71128;SHT30;59249;59.736;30.568;2023-09-30T01:30:12;16.75;93.43
71128;SHT30;59249;59.736;30.568;2023-09-30T01:32:41;16.75;93.39
71128;SHT30;59249;59.736;30.568;2023-09-30T01:35:10;16.80;93.36
71128;SHT30;59249;59.736;30.568;2023-09-30T01:37:39;16.69;93.36
71128;SHT30;59249;59.736;30.568;2023-09-30T01:40:11;16.66;93.50
71128;SHT30;59249;59.736;30.568;2023-09-30T01:42:40;16.56;93.59
71128;SHT30;59249;59.736;30.568;2023-09-30T01:45:10;16.56;93.89
71128;SHT30;59249;59.736;30.568;2023-09-30T01:47:39;16.54;93.95
71128;SHT30;59249;59.736;30.568;2023-09-30T01:50:09;16.56;93.89
71128;SHT30;59249;59.736;30.568;2023-09-30T01:52:38;16.50;94.12
71128;SHT30;59249;59.736;30.568;2023-09-30T01:55:08;16.54;94.03
71128;SHT30;59249;59.736;30.568;2023-09-30T01:57:38;16.53;94.16
71128;SHT30;59249;59.736;30.568;2023-09-30T02:00:07;16.49;94.19
71128;SHT30;59249;59.736;30.568;2023-09-30T02:02:41;16.52;93.97
71128;SHT30;59249;59.736;30.568;2023-09-30T02:05:11;16.52;94.24
71128;SHT30;59249;59.736;30.568;2023-09-30T02:07:41;16.58;94.11
71128;SHT30;59249;59.736;30.568;2023-09-30T02:10:10;16.56;94.04
71128;SHT30;59249;59.736;30.568;2023-09-30T02:12:41;16.50;94.20
71128;SHT30;59249;59.736;30.568;2023-09-30T02:15:12;16.53;94.09
71128;SHT30;59249;59.736;30.568;2023-09-30T02:17:42;16.53;94.20
71128;SHT30;59249;59.736;30.568;2023-09-30T02:20:15;16.55;94.21
71128;SHT30;59249;59.736;30.568;2023-09-30T02:22:46;16.49;94.28
71128;SHT30;59249;59.736;30.568;2023-09-30T02:25:16;16.48;94.89
71128;SHT30;59249;59.736;30.568;2023-09-30T02:27:47;16.47;94.99
71128;SHT30;59249;59.736;30.568;2023-09-30T02:30:18;16.49;94.80
71128;SHT30;59249;59.736;30.568;2023-09-30T02:32:47;16.51;94.79
71128;SHT30;59249;59.736;30.568;2023-09-30T02:35:16;16.49;95.03
71128;SHT30;59249;59.736;30.568;2023-09-30T02:37:46;16.52;95.11
71128;SHT30;59249;59.736;30.568;2023-09-30T02:40:17;16.50;94.89
71128;SHT30;59249;59.736;30.568;2023-09-30T02:42:47;16.49;95.09
71128;SHT30;59249;59.736;30.568;2023-09-30T02:45:16;16.50;95.31
71128;SHT30;59249;59.736;30.568;2023-09-30T02:47:46;16.55;95.34
71128;SHT30;59249;59.736;30.568;2023-09-30T02:50:15;16.52;95.30
71128;SHT30;59249;59.736;30.568;2023-09-30T02:52:44;16.58;95.28
71128;SHT30;59249;59.736;30.568;2023-09-30T02:55:13;16.54;95.42
71128;SHT30;59249;59.736;30.568;2023-09-30T02:57:47;16.56;95.30
71128;SHT30;59249;59.736;30.568;2023-09-30T03:00:17;16.54;95.36
71128;SHT30;59249;59.736;30.568;2023-09-30T03:02:54;16.55;95.42
71128;SHT30;59249;59.736;30.568;2023-09-30T03:05:23;16.58;95.36
71128;SHT30;59249;59.736;30.568;2023-09-30T03:07:54;16.60;95.34
71128;SHT30;59249;59.736;30.568;2023-09-30T03:10:23;16.57;95.24
71128;SHT30;59249;59.736;30.568;2023-09-30T03:12:53;16.67;95.04
71128;SHT30;59249;59.736;30.568;2023-09-30T03:15:22;16.68;94.73
71128;SHT30;59249;59.736;30.568;2023-09-30T03:17:52;16.63;94.89
71128;SHT30;59249;59.736;30.568;2023-09-30T03:20:23;16.66;94.77
71128;SHT30;59249;59.736;30.568;2023-09-30T03:22:53;16.69;94.56
71128;SHT30;59249;59.736;30.568;2023-09-30T03:25:21;16.67;94.53
71128;SHT30;59249;59.736;30.568;2023-09-30T03:27:50;16.76;94.36
71128;SHT30;59249;59.736;30.568;2023-09-30T03:30:21;16.72;94.36
71128;SHT30;59249;59.736;30.568;2023-09-30T03:32:50;16.78;94.47
71128;SHT30;59249;59.736;30.568;2023-09-30T03:35:19;16.76;94.32
71128;SHT30;59249;59.736;30.568;2023-09-30T03:37:49;16.73;94.31
71128;SHT30;59249;59.736;30.568;2023-09-30T03:40:18;16.76;94.40
71128;SHT30;59249;59.736;30.568;2023-09-30T03:42:48;16.72;94.55
71128;SHT30;59249;59.736;30.568;2023-09-30T03:45:18;16.76;94.46
71128;SHT30;59249;59.736;30.568;2023-09-30T03:47:49;16.72;94.20
71128;SHT30;59249;59.736;30.568;2023-09-30T03:50:19;16.67;94.71
71128;SHT30;59249;59.736;30.568;2023-09-30T03:52:51;16.69;94.75
71128;SHT30;59249;59.736;30.568;2023-09-30T03:55:20;16.76;94.37
71128;SHT30;59249;59.736;30.568;2023-09-30T03:57:50;16.72;94.40
71128;SHT30;59249;59.736;30.568;2023-09-30T04:00:19;16.67;94.67
71128;SHT30;59249;59.736;30.568;2023-09-30T04:02:51;16.73;94.49
71128;SHT30;59249;59.736;30.568;2023-09-30T04:05:26;16.69;94.44
71128;SHT30;59249;59.736;30.568;2023-09-30T04:07:57;16.67;94.81
71128;SHT30;59249;59.736;30.568;2023-09-30T04:10:26;16.76;94.53
71128;SHT30;59249;59.736;30.568;2023-09-30T04:12:57;16.69;94.40
71128;SHT30;59249;59.736;30.568;2023-09-30T04:15:26;16.75;94.45
71128;SHT30;59249;59.736;30.568;2023-09-30T04:17:56;16.68;94.37
71128;SHT30;59249;59.736;30.568;2023-09-30T04:20:25;16.72;94.33
71128;SHT30;59249;59.736;30.568;2023-09-30T04:22:54;16.64;94.24
71128;SHT30;59249;59.736;30.568;2023-09-30T04:25:25;16.72;94.27
71128;SHT30;59249;59.736;30.568;2023-09-30T04:27:54;16.66;94.29
71128;SHT30;59249;59.736;30.568;2023-09-30T04:30:23;16.70;94.00
71128;SHT30;59249;59.736;30.568;2023-09-30T04:32:53;16.69;94.19
71128;SHT30;59249;59.736;30.568;2023-09-30T04:35:23;16.70;94.10
71128;SHT30;59249;59.736;30.568;2023-09-30T04:37:53;16.72;93.86
71128;SHT30;59249;59.736;30.568;2023-09-30T04:40:22;16.77;93.80
71128;SHT30;59249;59.736;30.568;2023-09-30T04:42:50;16.76;93.64
71128;SHT30;59249;59.736;30.568;2023-09-30T04:45:21;16.86;93.48
71128;SHT30;59249;59.736;30.568;2023-09-30T04:47:53;16.85;93.41
71128;SHT30;59249;59.736;30.568;2023-09-30T04:50:25;16.88;93.35
71128;SHT30;59249;59.736;30.568;2023-09-30T04:52:53;16.90;93.46
71128;SHT30;59249;59.736;30.568;2023-09-30T04:55:23;16.96;93.28
71128;SHT30;59249;59.736;30.568;2023-09-30T04:57:53;16.98;93.07
71128;SHT30;59249;59.736;30.568;2023-09-30T05:00:22;16.99;92.76
71128;SHT30;59249;59.736;30.568;2023-09-30T05:02:56;17.00;92.59
71128;SHT30;59249;59.736;30.568;2023-09-30T05:05:28;17.02;92.59
71128;SHT30;59249;59.736;30.568;2023-09-30T05:07:57;17.03;92.58
71128;SHT30;59249;59.736;30.568;2023-09-30T05:10:26;16.98;92.44
71128;SHT30;59249;59.736;30.568;2023-09-30T05:12:55;16.99;92.66
71128;SHT30;59249;59.736;30.568;2023-09-30T05:15:24;16.95;92.63
71128;SHT30;59249;59.736;30.568;2023-09-30T05:17:55;17.02;92.58
71128;SHT30;59249;59.736;30.568;2023-09-30T05:20:24;17.07;92.40
71128;SHT30;59249;59.736;30.568;2023-09-30T05:22:54;17.04;92.31
71128;SHT30;59249;59.736;30.568;2023-09-30T05:25:23;17.07;92.31
71128;SHT30;59249;59.736;30.568;2023-09-30T05:27:55;17.08;92.03
71128;SHT30;59249;59.736;30.568;2023-09-30T05:30:24;17.05;91.99
71128;SHT30;59249;59.736;30.568;2023-09-30T05:32:53;17.04;92.02
71128;SHT30;59249;59.736;30.568;2023-09-30T05:35:22;17.07;91.94
71128;SHT30;59249;59.736;30.568;2023-09-30T05:37:51;17.04;91.92
71128;SHT30;59249;59.736;30.568;2023-09-30T05:40:22;17.13;91.70
71128;SHT30;59249;59.736;30.568;2023-09-30T05:42:54;17.12;91.65
71128;SHT30;59249;59.736;30.568;2023-09-30T05:45:27;17.07;91.40
71128;SHT30;59249;59.736;30.568;2023-09-30T05:47:56;17.06;91.39
71128;SHT30;59249;59.736;30.568;2023-09-30T05:50:30;17.09;91.23
71128;SHT30;59249;59.736;30.568;2023-09-30T05:53:02;17.04;91.26
71128;SHT30;59249;59.736;30.568;2023-09-30T05:55:33;17.07;91.35
71128;SHT30;59249;59.736;30.568;2023-09-30T05:58:03;17.01;91.58
71128;SHT30;59249;59.736;30.568;2023-09-30T06:00:32;16.98;91.64
71128;SHT30;59249;59.736;30.568;2023-09-30T06:03:14;16.95;91.90
71128;SHT30;59249;59.736;30.568;2023-09-30T06:06:13;16.93;91.96
71128;SHT30;59249;59.736;30.568;2023-09-30T06:08:47;16.99;92.05
71128;SHT30;59249;59.736;30.568;2023-09-30T06:11:21;16.99;92.03
71128;SHT30;59249;59.736;30.568;2023-09-30T06:13:52;16.98;91.98
71128;SHT30;59249;59.736;30.568;2023-09-30T06:16:21;16.97;92.09
71128;SHT30;59249;59.736;30.568;2023-09-30T06:18:50;16.95;92.20
71128;SHT30;59249;59.736;30.568;2023-09-30T06:21:20;16.98;92.37
71128;SHT30;59249;59.736;30.568;2023-09-30T06:23:49;16.99;92.34
71128;SHT30;59249;59.736;30.568;2023-09-30T06:26:20;17.00;92.47
71128;SHT30;59249;59.736;30.568;2023-09-30T06:28:52;17.06;92.32
71128;SHT30;59249;59.736;30.568;2023-09-30T06:31:23;17.04;92.33
71128;SHT30;59249;59.736;30.568;2023-09-30T06:33:52;17.09;92.37
71128;SHT30;59249;59.736;30.568;2023-09-30T06:36:25;17.15;92.22
71128;SHT30;59249;59.736;30.568;2023-09-30T06:38:54;17.17;91.94
71128;SHT30;59249;59.736;30.568;2023-09-30T06:41:25;17.15;91.75
71128;SHT30;59249;59.736;30.568;2023-09-30T06:43:53;17.17;91.72
71128;SHT30;59249;59.736;30.568;2023-09-30T06:46:22;17.24;91.82
71128;SHT30;59249;59.736;30.568;2023-09-30T06:48:51;17.27;91.68
71128;SHT30;59249;59.736;30.568;2023-09-30T06:51:20;17.29;91.70
71128;SHT30;59249;59.736;30.568;2023-09-30T06:53:49;17.35;91.58
71128;SHT30;59249;59.736;30.568;2023-09-30T06:56:19;17.39;91.28
71128;SHT30;59249;59.736;30.568;2023-09-30T06:58:56;17.39;91.34
71128;SHT30;59249;59.736;30.568;2023-09-30T07:01:25;17.40;91.13
71128;SHT30;59249;59.736;30.568;2023-09-30T07:03:57;17.46;90.92
71128;SHT30;59249;59.736;30.568;2023-09-30T07:06:28;17.49;90.99
71128;SHT30;59249;59.736;30.568;2023-09-30T07:08:59;17.53;91.17
71128;SHT30;59249;59.736;30.568;2023-09-30T07:11:28;17.61;90.96
71128;SHT30;59249;59.736;30.568;2023-09-30T07:14:01;17.72;90.49
71128;SHT30;59249;59.736;30.568;2023-09-30T07:16:30;17.79;89.72
71128;SHT30;59249;59.736;30.568;2023-09-30T07:19:00;17.76;89.92
71128;SHT30;59249;59.736;30.568;2023-09-30T07:21:30;17.81;89.37
71128;SHT30;59249;59.736;30.568;2023-09-30T07:23:59;17.79;89.36
71128;SHT30;59249;59.736;30.568;2023-09-30T07:26:28;17.83;89.36
71128;SHT30;59249;59.736;30.568;2023-09-30T07:28:57;17.93;89.07
71128;SHT30;59249;59.736;30.568;2023-09-30T07:31:27;17.88;88.83
71128;SHT30;59249;59.736;30.568;2023-09-30T07:33:56;17.93;88.80
71128;SHT30;59249;59.736;30.568;2023-09-30T07:36:25;17.91;89.04
71128;SHT30;59249;59.736;30.568;2023-09-30T07:38:54;18.01;88.62
71128;SHT30;59249;59.736;30.568;2023-09-30T07:41:23;18.05;88.74
71128;SHT30;59249;59.736;30.568;2023-09-30T07:43:54;18.08;88.41
71128;SHT30;59249;59.736;30.568;2023-09-30T07:46:27;18.16;88.28
71128;SHT30;59249;59.736;30.568;2023-09-30T07:48:56;18.24;87.73
71128;SHT30;59249;59.736;30.568;2023-09-30T07:51:26;18.35;87.59
71128;SHT30;59249;59.736;30.568;2023-09-30T07:53:55;18.52;87.55
71128;SHT30;59249;59.736;30.568;2023-09-30T07:56:41;18.59;87.22
71128;SHT30;59249;59.736;30.568;2023-09-30T07:59:10;18.72;86.95
71128;SHT30;59249;59.736;30.568;2023-09-30T08:01:40;18.79;86.24
71128;SHT30;59249;59.736;30.568;2023-09-30T08:04:12;18.91;86.12
71128;SHT30;59249;59.736;30.568;2023-09-30T08:06:41;19.00;85.73
71128;SHT30;59249;59.736;30.568;2023-09-30T08:09:13;19.09;85.53
71128;SHT30;59249;59.736;30.568;2023-09-30T08:11:42;19.14;84.71
71128;SHT30;59249;59.736;30.568;2023-09-30T08:14:11;19.16;84.29
71128;SHT30;59249;59.736;30.568;2023-09-30T08:16:42;19.16;83.96
71128;SHT30;59249;59.736;30.568;2023-09-30T08:19:13;19.19;84.26
71128;SHT30;59249;59.736;30.568;2023-09-30T08:21:43;19.17;84.25
71128;SHT30;59249;59.736;30.568;2023-09-30T08:24:12;19.31;84.02
71128;SHT30;59249;59.736;30.568;2023-09-30T08:26:41;19.35;83.97
71128;SHT30;59249;59.736;30.568;2023-09-30T08:29:11;19.38;83.90
71128;SHT30;59249;59.736;30.568;2023-09-30T08:31:42;19.40;83.46
71128;SHT30;59249;59.736;30.568;2023-09-30T08:34:11;19.49;83.10
71128;SHT30;59249;59.736;30.568;2023-09-30T08:36:42;19.51;82.99
71128;SHT30;59249;59.736;30.568;2023-09-30T08:39:12;19.57;82.66
71128;SHT30;59249;59.736;30.568;2023-09-30T08:41:41;19.64;82.99
71128;SHT30;59249;59.736;30.568;2023-09-30T08:44:13;19.77;82.55
71128;SHT30;59249;59.736;30.568;2023-09-30T08:46:49;19.82;82.29
71128;SHT30;59249;59.736;30.568;2023-09-30T08:49:19;19.74;82.27
71128;SHT30;59249;59.736;30.568;2023-09-30T08:51:51;19.82;82.38
71128;SHT30;59249;59.736;30.568;2023-09-30T08:54:21;19.87;82.31
71128;SHT30;59249;59.736;30.568;2023-09-30T08:56:55;19.87;82.09
71128;SHT30;59249;59.736;30.568;2023-09-30T08:59:26;19.88;81.90
71128;SHT30;59249;59.736;30.568;2023-09-30T09:01:57;19.88;81.91
71128;SHT30;59249;59.736;30.568;2023-09-30T09:04:28;19.93;81.80
71128;SHT30;59249;59.736;30.568;2023-09-30T09:07:01;19.92;81.66
71128;SHT30;59249;59.736;30.568;2023-09-30T09:09:30;20.03;81.72
71128;SHT30;59249;59.736;30.568;2023-09-30T09:12:03;20.03;81.60
71128;SHT30;59249;59.736;30.568;2023-09-30T09:14:39;20.12;81.59
71128;SHT30;59249;59.736;30.568;2023-09-30T09:17:16;20.20;81.49
71128;SHT30;59249;59.736;30.568;2023-09-30T09:19:59;20.27;81.26
71128;SHT30;59249;59.736;30.568;2023-09-30T09:22:40;20.28;81.11
71128;SHT30;59249;59.736;30.568;2023-09-30T09:25:11;20.26;81.30
71128;SHT30;59249;59.736;30.568;2023-09-30T09:27:40;20.20;81.43
71128;SHT30;59249;59.736;30.568;2023-09-30T09:30:20;20.19;81.36
71128;SHT30;59249;59.736;30.568;2023-09-30T09:32:59;20.22;81.14
71128;SHT30;59249;59.736;30.568;2023-09-30T09:35:29;20.32;81.23
71128;SHT30;59249;59.736;30.568;2023-09-30T09:38:04;20.46;81.33
71128;SHT30;59249;59.736;30.568;2023-09-30T09:40:34;20.64;80.51
71128;SHT30;59249;59.736;30.568;2023-09-30T09:43:06;20.80;79.75
71128;SHT30;59249;59.736;30.568;2023-09-30T09:45:36;20.79;79.76
71128;SHT30;59249;59.736;30.568;2023-09-30T09:51:26;20.59;79.61
71128;SHT30;59249;59.736;30.568;2023-09-30T09:53:56;20.41;80.33
71128;SHT30;59249;59.736;30.568;2023-09-30T09:56:26;20.43;80.34
71128;SHT30;59249;59.736;30.568;2023-09-30T09:58:55;20.44;80.32
71128;SHT30;59249;59.736;30.568;2023-09-30T10:01:27;20.43;80.31
71128;SHT30;59249;59.736;30.568;2023-09-30T10:03:58;20.40;80.20
71128;SHT30;59249;59.736;30.568;2023-09-30T10:06:28;20.46;80.03
71128;SHT30;59249;59.736;30.568;2023-09-30T10:08:59;20.61;79.76
71128;SHT30;59249;59.736;30.568;2023-09-30T10:11:29;20.56;79.62
71128;SHT30;59249;59.736;30.568;2023-09-30T10:13:58;20.66;79.52
71128;SHT30;59249;59.736;30.568;2023-09-30T10:16:49;20.81;79.30
71128;SHT30;59249;59.736;30.568;2023-09-30T10:19:22;20.96;78.97
71128;SHT30;59249;59.736;30.568;2023-09-30T10:22:20;21.04;78.49
71128;SHT30;59249;59.736;30.568;2023-09-30T10:24:55;20.96;78.22
71128;SHT30;59249;59.736;30.568;2023-09-30T10:27:33;20.86;77.89
71128;SHT30;59249;59.736;30.568;2023-09-30T10:30:13;20.91;77.48
71128;SHT30;59249;59.736;30.568;2023-09-30T10:33:08;21.07;77.39
71128;SHT30;59249;59.736;30.568;2023-09-30T10:35:48;21.25;77.37
71128;SHT30;59249;59.736;30.568;2023-09-30T10:38:37;21.34;77.08
71128;SHT30;59249;59.736;30.568;2023-09-30T10:41:08;21.40;76.53
71128;SHT30;59249;59.736;30.568;2023-09-30T10:43:41;21.40;76.41
71128;SHT30;59249;59.736;30.568;2023-09-30T10:46:32;21.34;76.33
71128;SHT30;59249;59.736;30.568;2023-09-30T10:49:30;21.32;76.68
71128;SHT30;59249;59.736;30.568;2023-09-30T10:52:07;21.25;77.13
71128;SHT30;59249;59.736;30.568;2023-09-30T10:54:40;21.07;77.55
71128;SHT30;59249;59.736;30.568;2023-09-30T10:57:11;20.89;77.13
71128;SHT30;59249;59.736;30.568;2023-09-30T10:59:40;20.79;77.21
71128;SHT30;59249;59.736;30.568;2023-09-30T11:02:20;20.76;77.40
71128;SHT30;59249;59.736;30.568;2023-09-30T11:04:53;20.65;77.50
71128;SHT30;59249;59.736;30.568;2023-09-30T11:07:26;20.62;77.54
71128;SHT30;59249;59.736;30.568;2023-09-30T11:09:57;20.55;77.54
71128;SHT30;59249;59.736;30.568;2023-09-30T11:12:32;20.54;77.72
71128;SHT30;59249;59.736;30.568;2023-09-30T11:15:04;20.55;77.41
71128;SHT30;59249;59.736;30.568;2023-09-30T11:17:36;20.82;77.38
71128;SHT30;59249;59.736;30.568;2023-09-30T11:20:09;20.91;76.85
71128;SHT30;59249;59.736;30.568;2023-09-30T11:22:41;21.10;76.58
71128;SHT30;59249;59.736;30.568;2023-09-30T11:25:16;21.24;76.44
71128;SHT30;59249;59.736;30.568;2023-09-30T11:27:46;21.41;76.31
71128;SHT30;59249;59.736;30.568;2023-09-30T11:30:19;21.33;75.91
71128;SHT30;59249;59.736;30.568;2023-09-30T11:32:59;21.33;75.72
71128;SHT30;59249;59.736;30.568;2023-09-30T11:35:29;21.19;75.63
71128;SHT30;59249;59.736;30.568;2023-09-30T11:37:59;21.05;76.00
71128;SHT30;59249;59.736;30.568;2023-09-30T11:40:28;20.95;76.05
71128;SHT30;59249;59.736;30.568;2023-09-30T11:43:10;20.89;76.13
71128;SHT30;59249;59.736;30.568;2023-09-30T11:45:40;20.80;76.32
71128;SHT30;59249;59.736;30.568;2023-09-30T11:48:18;20.81;76.33
71128;SHT30;59249;59.736;30.568;2023-09-30T11:50:48;20.77;76.40
71128;SHT30;59249;59.736;30.568;2023-09-30T11:53:20;20.68;76.64
71128;SHT30;59249;59.736;30.568;2023-09-30T11:55:49;20.67;76.76
71128;SHT30;59249;59.736;30.568;2023-09-30T11:58:18;20.61;76.99
71128;SHT30;59249;59.736;30.568;2023-09-30T12:00:46;20.54;76.95
71128;SHT30;59249;59.736;30.568;2023-09-30T12:03:18;20.59;76.95
71128;SHT30;59249;59.736;30.568;2023-09-30T12:05:49;20.65;76.95
71128;SHT30;59249;59.736;30.568;2023-09-30T12:08:33;20.63;76.75
71128;SHT30;59249;59.736;30.568;2023-09-30T12:11:07;20.59;76.70
71128;SHT30;59249;59.736;30.568;2023-09-30T12:13:36;20.54;76.75
71128;SHT30;59249;59.736;30.568;2023-09-30T12:16:05;20.59;77.06
71128;SHT30;59249;59.736;30.568;2023-09-30T12:18:45;20.58;77.20
71128;SHT30;59249;59.736;30.568;2023-09-30T12:21:18;20.54;77.08
71128;SHT30;59249;59.736;30.568;2023-09-30T12:23:55;20.58;77.08
71128;SHT30;59249;59.736;30.568;2023-09-30T12:26:25;20.56;77.07
71128;SHT30;59249;59.736;30.568;2023-09-30T12:28:56;20.59;77.01
71128;SHT30;59249;59.736;30.568;2023-09-30T12:31:27;20.70;76.82
71128;SHT30;59249;59.736;30.568;2023-09-30T12:34:21;20.75;76.52
71128;SHT30;59249;59.736;30.568;2023-09-30T12:36:53;20.76;76.51
71128;SHT30;59249;59.736;30.568;2023-09-30T12:39:26;20.87;76.30
71128;SHT30;59249;59.736;30.568;2023-09-30T12:41:58;20.94;76.23
71128;SHT30;59249;59.736;30.568;2023-09-30T12:44:27;21.07;76.06
71128;SHT30;59249;59.736;30.568;2023-09-30T12:46:56;21.02;76.02
71128;SHT30;59249;59.736;30.568;2023-09-30T12:49:26;21.03;76.04
71128;SHT30;59249;59.736;30.568;2023-09-30T12:51:55;21.01;76.08
71128;SHT30;59249;59.736;30.568;2023-09-30T12:54:30;20.91;76.30
71128;SHT30;59249;59.736;30.568;2023-09-30T12:56:59;20.74;76.56
71128;SHT30;59249;59.736;30.568;2023-09-30T12:59:28;20.73;76.81
71128;SHT30;59249;59.736;30.568;2023-09-30T13:01:57;20.54;76.85
71128;SHT30;59249;59.736;30.568;2023-09-30T13:04:26;20.52;76.74
71128;SHT30;59249;59.736;30.568;2023-09-30T13:06:56;20.48;76.94
71128;SHT30;59249;59.736;30.568;2023-09-30T13:09:30;20.43;77.23
71128;SHT30;59249;59.736;30.568;2023-09-30T13:12:02;20.26;77.73
71128;SHT30;59249;59.736;30.568;2023-09-30T13:14:31;20.12;77.81
71128;SHT30;59249;59.736;30.568;2023-09-30T13:17:03;20.08;78.10
71128;SHT30;59249;59.736;30.568;2023-09-30T13:19:37;19.88;79.27
71128;SHT30;59249;59.736;30.568;2023-09-30T13:22:06;19.42;81.50
71128;SHT30;59249;59.736;30.568;2023-09-30T13:24:52;19.19;83.05
71128;SHT30;59249;59.736;30.568;2023-09-30T13:27:21;18.91;84.46
71128;SHT30;59249;59.736;30.568;2023-09-30T13:29:53;18.58;84.10
71128;SHT30;59249;59.736;30.568;2023-09-30T13:32:27;18.33;84.23
71128;SHT30;59249;59.736;30.568;2023-09-30T13:34:57;18.22;85.51
71128;SHT30;59249;59.736;30.568;2023-09-30T13:37:27;18.12;85.72
71128;SHT30;59249;59.736;30.568;2023-09-30T13:40:03;17.94;86.07
71128;SHT30;59249;59.736;30.568;2023-09-30T13:42:35;17.79;85.79
71128;SHT30;59249;59.736;30.568;2023-09-30T13:45:05;17.76;85.95
71128;SHT30;59249;59.736;30.568;2023-09-30T13:47:34;17.63;86.55
71128;SHT30;59249;59.736;30.568;2023-09-30T13:50:09;17.56;87.08
71128;SHT30;59249;59.736;30.568;2023-09-30T13:52:38;17.48;87.99
71128;SHT30;59249;59.736;30.568;2023-09-30T13:55:09;17.35;87.69
71128;SHT30;59249;59.736;30.568;2023-09-30T13:57:38;17.32;87.72
71128;SHT30;59249;59.736;30.568;2023-09-30T14:00:12;17.32;87.95
71128;SHT30;59249;59.736;30.568;2023-09-30T14:02:44;17.32;87.65
71128;SHT30;59249;59.736;30.568;2023-09-30T14:05:13;17.24;87.14
71128;SHT30;59249;59.736;30.568;2023-09-30T14:07:45;17.36;86.67
71128;SHT30;59249;59.736;30.568;2023-09-30T14:10:22;17.38;86.56
71128;SHT30;59249;59.736;30.568;2023-09-30T14:12:51;17.47;86.50
71128;SHT30;59249;59.736;30.568;2023-09-30T14:15:20;17.56;86.58
71128;SHT30;59249;59.736;30.568;2023-09-30T14:17:49;17.58;86.61
71128;SHT30;59249;59.736;30.568;2023-09-30T14:20:19;17.64;86.96
71128;SHT30;59249;59.736;30.568;2023-09-30T14:22:53;17.72;87.03
71128;SHT30;59249;59.736;30.568;2023-09-30T14:25:24;17.75;87.36
71128;SHT30;59249;59.736;30.568;2023-09-30T14:27:54;17.78;88.05
71128;SHT30;59249;59.736;30.568;2023-09-30T14:30:27;17.77;88.61
71128;SHT30;59249;59.736;30.568;2023-09-30T14:32:58;17.74;88.81
71128;SHT30;59249;59.736;30.568;2023-09-30T14:35:30;17.71;88.72
71128;SHT30;59249;59.736;30.568;2023-09-30T14:38:03;17.66;88.87
71128;SHT30;59249;59.736;30.568;2023-09-30T14:40:37;17.58;88.86
71128;SHT30;59249;59.736;30.568;2023-09-30T14:43:08;17.49;89.28
71128;SHT30;59249;59.736;30.568;2023-09-30T14:45:38;17.45;89.81
71128;SHT30;59249;59.736;30.568;2023-09-30T14:48:08;17.36;89.83
71128;SHT30;59249;59.736;30.568;2023-09-30T14:50:37;17.31;89.91
71128;SHT30;59249;59.736;30.568;2023-09-30T14:53:06;17.35;90.10
71128;SHT30;59249;59.736;30.568;2023-09-30T14:55:36;17.31;90.16
71128;SHT30;59249;59.736;30.568;2023-09-30T14:58:08;17.25;90.42
71128;SHT30;59249;59.736;30.568;2023-09-30T15:00:39;17.23;90.60
71128;SHT30;59249;59.736;30.568;2023-09-30T15:03:08;17.14;90.81
71128;SHT30;59249;59.736;30.568;2023-09-30T15:05:39;17.09;90.99
71128;SHT30;59249;59.736;30.568;2023-09-30T15:08:09;17.07;91.35
71128;SHT30;59249;59.736;30.568;2023-09-30T15:10:41;16.99;91.92
71128;SHT30;59249;59.736;30.568;2023-09-30T15:13:11;16.91;92.05
71128;SHT30;59249;59.736;30.568;2023-09-30T15:15:40;16.91;92.03
71128;SHT30;59249;59.736;30.568;2023-09-30T15:18:10;16.89;92.37
71128;SHT30;59249;59.736;30.568;2023-09-30T15:20:39;16.84;92.47
71128;SHT30;59249;59.736;30.568;2023-09-30T15:23:18;16.87;92.73
71128;SHT30;59249;59.736;30.568;2023-09-30T15:25:51;16.76;92.77
71128;SHT30;59249;59.736;30.568;2023-09-30T15:28:20;16.61;93.46
71128;SHT30;59249;59.736;30.568;2023-09-30T15:30:51;16.63;93.57
71128;SHT30;59249;59.736;30.568;2023-09-30T15:33:20;16.67;93.74
71128;SHT30;59249;59.736;30.568;2023-09-30T15:35:48;16.58;93.84
71128;SHT30;59249;59.736;30.568;2023-09-30T15:38:17;16.60;93.96
71128;SHT30;59249;59.736;30.568;2023-09-30T15:40:55;16.60;93.99
71128;SHT30;59249;59.736;30.568;2023-09-30T15:43:24;16.56;94.41